sensor_id;sensor_type;location;lat;lon;timestamp;pressure;altitude;pressure_sealevel;temperature;humidity
77897;BME280;67092;64.282;21.056;2023-01-23T00:00:11;102603.69;;;20.55;22.44
77897;BME280;67092;64.282;21.056;2023-01-23T00:02:32;102595.14;;;20.93;22.49
77897;BME280;67092;64.282;21.056;2023-01-23T00:04:57;102595.72;;;20.84;22.46
77897;BME280;67092;64.282;21.056;2023-01-23T00:07:23;102594.49;;;20.64;22.48
77897;BME280;67092;64.282;21.056;2023-01-23T00:09:49;102584.56;;;20.37;22.73
77897;BME280;67092;64.282;21.056;2023-01-23T00:12:14;102578.23;;;20.37;23.19
77897;BME280;67092;64.282;21.056;2023-01-23T00:14:40;102580.05;;;20.15;22.95
77897;BME280;67092;64.282;21.056;2023-01-23T00:17:05;102575.85;;;20.67;22.75
77897;BME280;67092;64.282;21.056;2023-01-23T00:19:31;102576.11;;;20.11;23.01
77897;BME280;67092;64.282;21.056;2023-01-23T00:21:58;102573.92;;;20.43;22.99
77897;BME280;67092;64.282;21.056;2023-01-23T00:24:22;102570.02;;;20.99;22.72
77897;BME280;67092;64.282;21.056;2023-01-23T00:26:47;102574.15;;;20.64;23.01
77897;BME280;67092;64.282;21.056;2023-01-23T00:29:12;102570.54;;;20.07;23.37
77897;BME280;67092;64.282;21.056;2023-01-23T00:31:38;102570.56;;;20.15;23.29
77897;BME280;67092;64.282;21.056;2023-01-23T00:34:06;102564.73;;;21.26;22.54
77897;BME280;67092;64.282;21.056;2023-01-23T00:36:31;102569.74;;;20.30;23.14
77897;BME280;67092;64.282;21.056;2023-01-23T00:38:55;102560.61;;;20.74;22.82
77897;BME280;67092;64.282;21.056;2023-01-23T00:41:20;102552.29;;;20.47;22.75
77897;BME280;67092;64.282;21.056;2023-01-23T00:43:45;102550.27;;;20.75;22.72
77897;BME280;67092;64.282;21.056;2023-01-23T00:46:11;102555.67;;;20.30;23.16
77897;BME280;67092;64.282;21.056;2023-01-23T00:48:37;102552.14;;;20.01;23.17
77897;BME280;67092;64.282;21.056;2023-01-23T00:51:03;102557.99;;;20.53;22.95
77897;BME280;67092;64.282;21.056;2023-01-23T00:53:28;102558.32;;;20.69;23.02
77897;BME280;67092;64.282;21.056;2023-01-23T00:55:54;102557.19;;;20.40;23.24
77897;BME280;67092;64.282;21.056;2023-01-23T00:58:19;102551.51;;;19.88;23.25
77897;BME280;67092;64.282;21.056;2023-01-23T01:00:45;102541.86;;;20.33;23.26
77897;BME280;67092;64.282;21.056;2023-01-23T01:03:11;102535.25;;;20.45;23.08
77897;BME280;67092;64.282;21.056;2023-01-23T01:05:36;102536.68;;;19.36;23.03
77897;BME280;67092;64.282;21.056;2023-01-23T01:08:01;102556.50;;;20.53;22.79
77897;BME280;67092;64.282;21.056;2023-01-23T01:10:26;102566.89;;;20.16;22.94
77897;BME280;67092;64.282;21.056;2023-01-23T01:12:52;102564.08;;;20.34;23.00
77897;BME280;67092;64.282;21.056;2023-01-23T01:15:17;102561.58;;;20.18;22.86
77897;BME280;67092;64.282;21.056;2023-01-23T01:17:43;102559.21;;;20.48;22.82
77897;BME280;67092;64.282;21.056;2023-01-23T01:20:09;102557.14;;;20.24;22.86
77897;BME280;67092;64.282;21.056;2023-01-23T01:22:33;102551.78;;;21.12;22.50
77897;BME280;67092;64.282;21.056;2023-01-23T01:24:59;102546.75;;;20.47;22.63
77897;BME280;67092;64.282;21.056;2023-01-23T01:27:24;102549.51;;;20.47;22.83
77897;BME280;67092;64.282;21.056;2023-01-23T01:29:50;102560.11;;;20.45;22.67
77897;BME280;67092;64.282;21.056;2023-01-23T01:32:15;102545.92;;;20.55;22.75
77897;BME280;67092;64.282;21.056;2023-01-23T01:34:41;102549.43;;;20.17;23.11
77897;BME280;67092;64.282;21.056;2023-01-23T01:37:06;102549.80;;;20.83;22.53
77897;BME280;67092;64.282;21.056;2023-01-23T01:39:32;102550.66;;;20.78;22.62
77897;BME280;67092;64.282;21.056;2023-01-23T01:41:58;102547.50;;;20.83;22.57
77897;BME280;67092;64.282;21.056;2023-01-23T01:44:24;102545.16;;;20.32;22.92
77897;BME280;67092;64.282;21.056;2023-01-23T01:46:49;102542.06;;;20.06;22.95
77897;BME280;67092;64.282;21.056;2023-01-23T01:49:17;102542.31;;;20.15;22.92
77897;BME280;67092;64.282;21.056;2023-01-23T01:51:43;102536.28;;;20.73;22.84
77897;BME280;67092;64.282;21.056;2023-01-23T01:54:09;102537.88;;;20.36;22.88
77897;BME280;67092;64.282;21.056;2023-01-23T01:56:34;102533.95;;;20.03;23.03
77897;BME280;67092;64.282;21.056;2023-01-23T01:58:56;102530.48;;;20.22;23.05
77897;BME280;67092;64.282;21.056;2023-01-23T02:01:20;102528.85;;;20.37;22.97
77897;BME280;67092;64.282;21.056;2023-01-23T02:03:46;102533.10;;;20.96;22.65
77897;BME280;67092;64.282;21.056;2023-01-23T02:06:12;102535.72;;;20.29;23.02
77897;BME280;67092;64.282;21.056;2023-01-23T02:08:44;102535.57;;;19.87;23.16
77897;BME280;67092;64.282;21.056;2023-01-23T02:11:03;102534.30;;;20.01;23.52
77897;BME280;67092;64.282;21.056;2023-01-23T02:13:30;102534.64;;;20.43;23.16
77897;BME280;67092;64.282;21.056;2023-01-23T02:15:54;102538.04;;;20.72;22.70
77897;BME280;67092;64.282;21.056;2023-01-23T02:18:20;102541.16;;;20.47;22.87
77897;BME280;67092;64.282;21.056;2023-01-23T02:20:45;102538.27;;;20.27;23.10
77897;BME280;67092;64.282;21.056;2023-01-23T02:23:17;102548.72;;;20.08;23.20
77897;BME280;67092;64.282;21.056;2023-01-23T02:25:45;102551.53;;;20.16;23.13
77897;BME280;67092;64.282;21.056;2023-01-23T02:28:02;102565.63;;;20.26;23.27
77897;BME280;67092;64.282;21.056;2023-01-23T02:30:27;102557.44;;;20.12;23.41
77897;BME280;67092;64.282;21.056;2023-01-23T02:32:53;102553.95;;;20.35;22.96
77897;BME280;67092;64.282;21.056;2023-01-23T02:35:21;102548.16;;;20.15;23.39
77897;BME280;67092;64.282;21.056;2023-01-23T02:37:45;102546.01;;;20.16;23.39
77897;BME280;67092;64.282;21.056;2023-01-23T02:40:10;102547.65;;;20.28;23.24
77897;BME280;67092;64.282;21.056;2023-01-23T02:42:35;102538.73;;;20.04;23.40
77897;BME280;67092;64.282;21.056;2023-01-23T02:45:00;102534.93;;;19.98;23.48
77897;BME280;67092;64.282;21.056;2023-01-23T02:47:26;102552.40;;;20.29;23.22
77897;BME280;67092;64.282;21.056;2023-01-23T02:49:52;102563.72;;;20.40;23.11
77897;BME280;67092;64.282;21.056;2023-01-23T02:52:17;102557.40;;;20.03;23.42
77897;BME280;67092;64.282;21.056;2023-01-23T02:54:42;102554.73;;;20.14;23.37
77897;BME280;67092;64.282;21.056;2023-01-23T02:57:08;102553.72;;;20.42;23.01
77897;BME280;67092;64.282;21.056;2023-01-23T02:59:33;102544.38;;;20.49;22.97
77897;BME280;67092;64.282;21.056;2023-01-23T03:01:58;102536.80;;;20.09;23.29
77897;BME280;67092;64.282;21.056;2023-01-23T03:04:23;102532.25;;;20.37;23.19
77897;BME280;67092;64.282;21.056;2023-01-23T03:06:49;102531.62;;;19.90;23.38
77897;BME280;67092;64.282;21.056;2023-01-23T03:09:15;102525.39;;;20.05;23.25
77897;BME280;67092;64.282;21.056;2023-01-23T03:11:41;102517.36;;;19.74;23.58
77897;BME280;67092;64.282;21.056;2023-01-23T03:14:06;102501.45;;;20.13;23.22
77897;BME280;67092;64.282;21.056;2023-01-23T03:16:30;102498.77;;;19.80;23.69
77897;BME280;67092;64.282;21.056;2023-01-23T03:18:55;102493.50;;;20.14;23.47
77897;BME280;67092;64.282;21.056;2023-01-23T03:21:21;102484.79;;;21.29;22.47
77897;BME280;67092;64.282;21.056;2023-01-23T03:23:46;102488.15;;;20.37;23.00
77897;BME280;67092;64.282;21.056;2023-01-23T03:26:12;102492.20;;;20.42;23.19
77897;BME280;67092;64.282;21.056;2023-01-23T03:28:37;102500.92;;;20.32;23.29
77897;BME280;67092;64.282;21.056;2023-01-23T03:31:02;102518.51;;;20.21;23.61
77897;BME280;67092;64.282;21.056;2023-01-23T03:33:27;102518.93;;;20.01;23.62
77897;BME280;67092;64.282;21.056;2023-01-23T03:35:53;102513.76;;;20.11;23.48
77897;BME280;67092;64.282;21.056;2023-01-23T03:38:19;102519.50;;;20.26;23.40
77897;BME280;67092;64.282;21.056;2023-01-23T03:40:44;102511.58;;;19.74;23.61
77897;BME280;67092;64.282;21.056;2023-01-23T03:43:09;102502.95;;;20.13;23.57
77897;BME280;67092;64.282;21.056;2023-01-23T03:45:36;102508.76;;;20.21;23.44
77897;BME280;67092;64.282;21.056;2023-01-23T03:48:01;102512.33;;;20.10;23.54
77897;BME280;67092;64.282;21.056;2023-01-23T03:50:26;102522.94;;;19.88;23.73
77897;BME280;67092;64.282;21.056;2023-01-23T03:52:52;102530.70;;;20.07;23.53
77897;BME280;67092;64.282;21.056;2023-01-23T03:55:17;102534.31;;;19.88;23.75
77897;BME280;67092;64.282;21.056;2023-01-23T03:57:42;102522.59;;;20.33;23.28
77897;BME280;67092;64.282;21.056;2023-01-23T04:00:08;102511.00;;;20.06;23.53
77897;BME280;67092;64.282;21.056;2023-01-23T04:02:32;102502.40;;;20.79;22.96
77897;BME280;67092;64.282;21.056;2023-01-23T04:04:58;102492.26;;;20.45;23.21
77897;BME280;67092;64.282;21.056;2023-01-23T04:07:23;102502.39;;;20.17;23.43
77897;BME280;67092;64.282;21.056;2023-01-23T04:09:48;102506.46;;;19.98;23.54
77897;BME280;67092;64.282;21.056;2023-01-23T04:12:14;102505.44;;;20.16;23.45
77897;BME280;67092;64.282;21.056;2023-01-23T04:14:39;102503.43;;;20.11;23.24
77897;BME280;67092;64.282;21.056;2023-01-23T04:17:05;102490.15;;;20.43;23.22
77897;BME280;67092;64.282;21.056;2023-01-23T04:19:30;102491.75;;;20.37;23.05
77897;BME280;67092;64.282;21.056;2023-01-23T04:21:55;102498.09;;;20.25;23.34
77897;BME280;67092;64.282;21.056;2023-01-23T04:24:21;102508.41;;;19.93;23.38
77897;BME280;67092;64.282;21.056;2023-01-23T04:26:46;102510.88;;;20.19;23.45
77897;BME280;67092;64.282;21.056;2023-01-23T04:29:12;102510.69;;;20.20;23.29
77897;BME280;67092;64.282;21.056;2023-01-23T04:31:38;102510.22;;;20.06;23.19
77897;BME280;67092;64.282;21.056;2023-01-23T04:34:03;102521.44;;;19.91;23.36
77897;BME280;67092;64.282;21.056;2023-01-23T04:36:28;102522.16;;;20.31;23.27
77897;BME280;67092;64.282;21.056;2023-01-23T04:38:54;102509.27;;;19.96;23.55
77897;BME280;67092;64.282;21.056;2023-01-23T04:41:21;102502.11;;;20.67;22.98
77897;BME280;67092;64.282;21.056;2023-01-23T04:43:44;102496.26;;;20.29;23.28
77897;BME280;67092;64.282;21.056;2023-01-23T04:46:09;102505.20;;;20.21;23.18
77897;BME280;67092;64.282;21.056;2023-01-23T04:48:34;102510.21;;;20.13;23.20
77897;BME280;67092;64.282;21.056;2023-01-23T04:51:00;102508.23;;;19.99;23.48
77897;BME280;67092;64.282;21.056;2023-01-23T04:53:25;102510.42;;;20.21;23.36
77897;BME280;67092;64.282;21.056;2023-01-23T04:55:51;102505.49;;;20.08;23.27
77897;BME280;67092;64.282;21.056;2023-01-23T04:58:17;102491.48;;;20.71;22.93
77897;BME280;67092;64.282;21.056;2023-01-23T05:00:42;102485.89;;;20.27;23.20
77897;BME280;67092;64.282;21.056;2023-01-23T05:03:07;102493.65;;;20.09;23.31
77897;BME280;67092;64.282;21.056;2023-01-23T05:05:33;102491.78;;;20.13;23.36
77897;BME280;67092;64.282;21.056;2023-01-23T05:07:59;102501.32;;;20.40;23.10
77897;BME280;67092;64.282;21.056;2023-01-23T05:10:24;102502.88;;;19.93;23.58
77897;BME280;67092;64.282;21.056;2023-01-23T05:12:50;102507.16;;;20.76;22.99
77897;BME280;67092;64.282;21.056;2023-01-23T05:15:15;102502.90;;;20.15;23.54
77897;BME280;67092;64.282;21.056;2023-01-23T05:17:41;102508.15;;;20.33;23.42
77897;BME280;67092;64.282;21.056;2023-01-23T05:20:07;102507.70;;;19.96;23.72
77897;BME280;67092;64.282;21.056;2023-01-23T05:22:32;102515.12;;;20.03;23.66
77897;BME280;67092;64.282;21.056;2023-01-23T05:24:57;102517.47;;;19.73;23.80
77897;BME280;67092;64.282;21.056;2023-01-23T05:27:22;102521.00;;;19.62;24.02
77897;BME280;67092;64.282;21.056;2023-01-23T05:29:48;102521.97;;;20.12;23.70
77897;BME280;67092;64.282;21.056;2023-01-23T05:32:14;102524.98;;;20.24;23.47
77897;BME280;67092;64.282;21.056;2023-01-23T05:34:39;102530.83;;;19.84;23.73
77897;BME280;67092;64.282;21.056;2023-01-23T05:37:05;102529.84;;;20.35;23.32
77897;BME280;67092;64.282;21.056;2023-01-23T05:39:31;102529.11;;;20.31;23.57
77897;BME280;67092;64.282;21.056;2023-01-23T05:41:56;102532.69;;;20.11;23.49
77897;BME280;67092;64.282;21.056;2023-01-23T05:44:21;102535.54;;;19.91;23.63
77897;BME280;67092;64.282;21.056;2023-01-23T05:46:47;102537.22;;;20.38;23.29
77897;BME280;67092;64.282;21.056;2023-01-23T05:49:12;102533.87;;;20.25;23.45
77897;BME280;67092;64.282;21.056;2023-01-23T05:51:38;102532.92;;;20.15;23.46
77897;BME280;67092;64.282;21.056;2023-01-23T05:54:03;102534.68;;;20.10;23.44
77897;BME280;67092;64.282;21.056;2023-01-23T05:56:29;102543.31;;;19.95;23.50
77897;BME280;67092;64.282;21.056;2023-01-23T05:58:55;102545.15;;;20.50;23.30
77897;BME280;67092;64.282;21.056;2023-01-23T06:01:21;102546.51;;;20.20;23.29
77897;BME280;67092;64.282;21.056;2023-01-23T06:03:47;102552.53;;;20.25;23.36
77897;BME280;67092;64.282;21.056;2023-01-23T06:06:12;102556.20;;;20.02;23.42
77897;BME280;67092;64.282;21.056;2023-01-23T06:08:37;102560.92;;;19.88;23.61
77897;BME280;67092;64.282;21.056;2023-01-23T06:11:03;102558.05;;;20.11;23.40
77897;BME280;67092;64.282;21.056;2023-01-23T06:13:29;102551.51;;;19.89;23.61
77897;BME280;67092;64.282;21.056;2023-01-23T06:15:53;102540.43;;;20.96;22.74
77897;BME280;67092;64.282;21.056;2023-01-23T06:18:19;102545.86;;;20.39;23.07
77897;BME280;67092;64.282;21.056;2023-01-23T06:20:45;102545.24;;;20.93;22.80
77897;BME280;67092;64.282;21.056;2023-01-23T06:23:10;102554.26;;;20.85;22.66
77897;BME280;67092;64.282;21.056;2023-01-23T06:25:36;102557.39;;;20.73;22.98
77897;BME280;67092;64.282;21.056;2023-01-23T06:28:02;102548.25;;;21.05;22.73
77897;BME280;67092;64.282;21.056;2023-01-23T06:30:27;102546.82;;;20.20;23.30
77897;BME280;67092;64.282;21.056;2023-01-23T06:32:53;102553.44;;;20.58;23.20
77897;BME280;67092;64.282;21.056;2023-01-23T06:35:18;102551.99;;;20.39;23.10
77897;BME280;67092;64.282;21.056;2023-01-23T06:37:44;102539.07;;;20.46;23.20
77897;BME280;67092;64.282;21.056;2023-01-23T06:40:10;102541.42;;;20.56;23.06
77897;BME280;67092;64.282;21.056;2023-01-23T06:42:34;102540.12;;;20.24;23.10
77897;BME280;67092;64.282;21.056;2023-01-23T06:45:00;102542.27;;;20.44;23.07
77897;BME280;67092;64.282;21.056;2023-01-23T06:47:26;102538.71;;;19.91;23.26
77897;BME280;67092;64.282;21.056;2023-01-23T06:49:51;102534.84;;;19.83;23.07
77897;BME280;67092;64.282;21.056;2023-01-23T06:52:17;102524.90;;;20.03;23.02
77897;BME280;67092;64.282;21.056;2023-01-23T06:54:42;102530.87;;;20.25;23.07
77897;BME280;67092;64.282;21.056;2023-01-23T06:57:08;102533.95;;;19.91;22.95
77897;BME280;67092;64.282;21.056;2023-01-23T06:59:34;102534.10;;;20.00;22.98
77897;BME280;67092;64.282;21.056;2023-01-23T07:02:00;102529.18;;;20.08;22.89
77897;BME280;67092;64.282;21.056;2023-01-23T07:04:25;102530.73;;;20.86;22.41
77897;BME280;67092;64.282;21.056;2023-01-23T07:06:51;102540.58;;;20.16;22.89
77897;BME280;67092;64.282;21.056;2023-01-23T07:09:16;102542.90;;;20.22;22.84
77897;BME280;67092;64.282;21.056;2023-01-23T07:11:42;102547.28;;;19.91;22.80
77897;BME280;67092;64.282;21.056;2023-01-23T07:14:07;102554.01;;;19.85;22.86
77897;BME280;67092;64.282;21.056;2023-01-23T07:16:33;102553.99;;;20.44;22.34
77897;BME280;67092;64.282;21.056;2023-01-23T07:18:58;102559.33;;;20.05;22.44
77897;BME280;67092;64.282;21.056;2023-01-23T07:21:24;102562.67;;;20.11;22.53
77897;BME280;67092;64.282;21.056;2023-01-23T07:23:50;102562.93;;;20.40;22.28
77897;BME280;67092;64.282;21.056;2023-01-23T07:26:15;102563.82;;;20.41;22.24
77897;BME280;67092;64.282;21.056;2023-01-23T07:28:41;102568.49;;;19.97;22.67
77897;BME280;67092;64.282;21.056;2023-01-23T07:31:06;102565.64;;;20.05;22.48
77897;BME280;67092;64.282;21.056;2023-01-23T07:33:32;102562.31;;;20.40;22.07
77897;BME280;67092;64.282;21.056;2023-01-23T07:35:58;102561.46;;;20.51;22.00
77897;BME280;67092;64.282;21.056;2023-01-23T07:38:23;102555.61;;;20.04;22.36
77897;BME280;67092;64.282;21.056;2023-01-23T07:40:49;102556.79;;;19.88;22.40
77897;BME280;67092;64.282;21.056;2023-01-23T07:43:15;102555.04;;;20.28;22.28
77897;BME280;67092;64.282;21.056;2023-01-23T07:45:40;102561.32;;;20.10;22.60
77897;BME280;67092;64.282;21.056;2023-01-23T07:48:06;102560.65;;;20.06;22.20
77897;BME280;67092;64.282;21.056;2023-01-23T07:50:32;102561.36;;;19.92;22.29
77897;BME280;67092;64.282;21.056;2023-01-23T07:52:57;102557.74;;;20.39;21.90
77897;BME280;67092;64.282;21.056;2023-01-23T07:55:23;102553.66;;;20.38;22.10
77897;BME280;67092;64.282;21.056;2023-01-23T07:57:48;102549.03;;;20.14;22.01
77897;BME280;67092;64.282;21.056;2023-01-23T08:00:15;102544.24;;;19.92;22.12
77897;BME280;67092;64.282;21.056;2023-01-23T08:02:39;102542.38;;;19.55;22.45
77897;BME280;67092;64.282;21.056;2023-01-23T08:05:06;102540.21;;;20.17;22.09
77897;BME280;67092;64.282;21.056;2023-01-23T08:07:31;102540.40;;;19.71;22.40
77897;BME280;67092;64.282;21.056;2023-01-23T08:09:56;102529.12;;;20.34;21.97
77897;BME280;67092;64.282;21.056;2023-01-23T08:12:22;102529.66;;;20.18;21.85
77897;BME280;67092;64.282;21.056;2023-01-23T08:14:48;102533.74;;;19.84;22.01
77897;BME280;67092;64.282;21.056;2023-01-23T08:17:13;102534.87;;;19.83;22.07
77897;BME280;67092;64.282;21.056;2023-01-23T08:19:39;102531.36;;;20.43;21.84
77897;BME280;67092;64.282;21.056;2023-01-23T08:22:05;102527.14;;;20.19;21.71
77897;BME280;67092;64.282;21.056;2023-01-23T08:24:31;102520.17;;;20.21;21.66
77897;BME280;67092;64.282;21.056;2023-01-23T08:26:56;102524.01;;;20.31;21.82
77897;BME280;67092;64.282;21.056;2023-01-23T08:29:21;102524.95;;;20.56;21.59
77897;BME280;67092;64.282;21.056;2023-01-23T08:31:47;102523.50;;;20.22;21.84
77897;BME280;67092;64.282;21.056;2023-01-23T08:34:12;102516.70;;;20.24;21.58
77897;BME280;67092;64.282;21.056;2023-01-23T08:36:38;102512.88;;;19.84;21.84
77897;BME280;67092;64.282;21.056;2023-01-23T08:39:04;102514.84;;;19.77;21.92
77897;BME280;67092;64.282;21.056;2023-01-23T08:41:29;102517.92;;;19.76;22.04
77897;BME280;67092;64.282;21.056;2023-01-23T08:43:55;102521.77;;;20.65;21.38
77897;BME280;67092;64.282;21.056;2023-01-23T08:46:21;102522.64;;;19.99;21.78
77897;BME280;67092;64.282;21.056;2023-01-23T08:48:46;102517.68;;;19.98;21.80
77897;BME280;67092;64.282;21.056;2023-01-23T08:51:13;102515.94;;;20.54;21.35
77897;BME280;67092;64.282;21.056;2023-01-23T08:53:38;102514.66;;;19.47;21.98
77897;BME280;67092;64.282;21.056;2023-01-23T08:56:05;102512.16;;;20.18;21.59
77897;BME280;67092;64.282;21.056;2023-01-23T08:58:29;102513.25;;;20.19;21.48
77897;BME280;67092;64.282;21.056;2023-01-23T09:00:54;102517.51;;;19.91;21.59
77897;BME280;67092;64.282;21.056;2023-01-23T09:03:20;102521.58;;;20.00;21.50
77897;BME280;67092;64.282;21.056;2023-01-23T09:05:46;102523.79;;;20.49;21.09
77897;BME280;67092;64.282;21.056;2023-01-23T09:08:11;102532.64;;;20.17;21.20
77897;BME280;67092;64.282;21.056;2023-01-23T09:10:37;102532.34;;;19.70;21.66
77897;BME280;67092;64.282;21.056;2023-01-23T09:13:03;102535.88;;;20.21;21.30
77897;BME280;67092;64.282;21.056;2023-01-23T09:15:28;102540.71;;;20.04;21.38
77897;BME280;67092;64.282;21.056;2023-01-23T09:17:54;102542.78;;;20.11;21.34
77897;BME280;67092;64.282;21.056;2023-01-23T09:20:19;102546.98;;;20.48;20.93
77897;BME280;67092;64.282;21.056;2023-01-23T09:22:45;102548.25;;;20.22;21.35
77897;BME280;67092;64.282;21.056;2023-01-23T09:25:11;102546.31;;;20.30;21.27
77897;BME280;67092;64.282;21.056;2023-01-23T09:27:36;102552.22;;;19.95;21.57
77897;BME280;67092;64.282;21.056;2023-01-23T09:30:02;102552.19;;;20.39;21.20
77897;BME280;67092;64.282;21.056;2023-01-23T09:32:27;102552.79;;;20.39;21.13
77897;BME280;67092;64.282;21.056;2023-01-23T09:34:53;102554.62;;;20.03;21.18
77897;BME280;67092;64.282;21.056;2023-01-23T09:37:19;102553.76;;;20.37;20.90
77897;BME280;67092;64.282;21.056;2023-01-23T09:39:44;102544.35;;;20.31;21.31
77897;BME280;67092;64.282;21.056;2023-01-23T09:42:14;102542.94;;;20.11;21.29
77897;BME280;67092;64.282;21.056;2023-01-23T09:44:38;102544.90;;;20.03;21.32
77897;BME280;67092;64.282;21.056;2023-01-23T09:47:05;102544.27;;;19.76;21.32
77897;BME280;67092;64.282;21.056;2023-01-23T09:49:35;102544.44;;;20.48;20.82
77897;BME280;67092;64.282;21.056;2023-01-23T09:51:55;102541.63;;;20.18;21.02
77897;BME280;67092;64.282;21.056;2023-01-23T09:54:31;102535.92;;;20.40;20.86
77897;BME280;67092;64.282;21.056;2023-01-23T09:56:45;102538.54;;;19.97;21.13
77897;BME280;67092;64.282;21.056;2023-01-23T09:59:13;102539.98;;;19.64;21.44
77897;BME280;67092;64.282;21.056;2023-01-23T10:01:36;102540.01;;;19.96;21.30
77897;BME280;67092;64.282;21.056;2023-01-23T10:04:01;102536.15;;;20.06;21.04
77897;BME280;67092;64.282;21.056;2023-01-23T10:06:29;102537.75;;;20.40;20.80
77897;BME280;67092;64.282;21.056;2023-01-23T10:09:18;102535.24;;;20.36;20.82
77897;BME280;67092;64.282;21.056;2023-01-23T10:11:24;102532.75;;;20.23;21.01
77897;BME280;67092;64.282;21.056;2023-01-23T10:13:53;102526.65;;;20.07;20.98
77897;BME280;67092;64.282;21.056;2023-01-23T10:16:20;102531.87;;;20.49;20.62
77897;BME280;67092;64.282;21.056;2023-01-23T10:18:41;102535.18;;;20.20;20.86
77897;BME280;67092;64.282;21.056;2023-01-23T10:21:10;102530.61;;;19.90;21.11
77897;BME280;67092;64.282;21.056;2023-01-23T10:23:40;102529.40;;;20.21;20.94
77897;BME280;67092;64.282;21.056;2023-01-23T10:25:52;102524.53;;;20.36;20.81
77897;BME280;67092;64.282;21.056;2023-01-23T10:28:25;102522.12;;;19.82;21.14
77897;BME280;67092;64.282;21.056;2023-01-23T10:30:46;102521.43;;;20.16;20.92
77897;BME280;67092;64.282;21.056;2023-01-23T10:33:13;102523.78;;;20.00;21.17
77897;BME280;67092;64.282;21.056;2023-01-23T10:35:38;102533.39;;;20.54;20.80
77897;BME280;67092;64.282;21.056;2023-01-23T10:38:04;102528.91;;;19.86;21.31
77897;BME280;67092;64.282;21.056;2023-01-23T10:40:25;102528.04;;;20.27;20.98
77897;BME280;67092;64.282;21.056;2023-01-23T10:42:50;102532.08;;;20.59;20.55
77897;BME280;67092;64.282;21.056;2023-01-23T10:45:18;102527.27;;;19.79;21.11
77897;BME280;67092;64.282;21.056;2023-01-23T10:47:44;102515.93;;;20.10;20.89
77897;BME280;67092;64.282;21.056;2023-01-23T10:50:08;102505.93;;;20.43;20.66
77897;BME280;67092;64.282;21.056;2023-01-23T10:52:35;102499.69;;;19.97;21.03
77897;BME280;67092;64.282;21.056;2023-01-23T10:54:59;102502.40;;;19.87;21.11
77897;BME280;67092;64.282;21.056;2023-01-23T10:57:26;102503.69;;;20.28;20.90
77897;BME280;67092;64.282;21.056;2023-01-23T10:59:54;102497.49;;;20.23;20.95
77897;BME280;67092;64.282;21.056;2023-01-23T11:02:20;102498.63;;;20.54;20.65
77897;BME280;67092;64.282;21.056;2023-01-23T11:04:43;102496.79;;;19.94;20.94
77897;BME280;67092;64.282;21.056;2023-01-23T11:07:11;102490.95;;;19.84;21.06
77897;BME280;67092;64.282;21.056;2023-01-23T11:09:46;102481.74;;;20.69;20.55
77897;BME280;67092;64.282;21.056;2023-01-23T11:12:01;102484.63;;;20.15;20.78
77897;BME280;67092;64.282;21.056;2023-01-23T11:14:24;102483.44;;;19.79;21.00
77897;BME280;67092;64.282;21.056;2023-01-23T11:16:58;102489.73;;;20.39;20.77
77897;BME280;67092;64.282;21.056;2023-01-23T11:19:18;102494.97;;;20.21;20.66
77897;BME280;67092;64.282;21.056;2023-01-23T11:21:50;102496.17;;;19.96;20.84
77897;BME280;67092;64.282;21.056;2023-01-23T11:24:11;102491.07;;;20.18;20.65
77897;BME280;67092;64.282;21.056;2023-01-23T11:26:33;102486.21;;;20.05;20.92
77897;BME280;67092;64.282;21.056;2023-01-23T11:28:57;102484.73;;;20.42;20.60
77897;BME280;67092;64.282;21.056;2023-01-23T11:31:23;102475.69;;;20.64;20.50
77897;BME280;67092;64.282;21.056;2023-01-23T11:33:53;102473.53;;;20.08;20.61
77897;BME280;67092;64.282;21.056;2023-01-23T11:36:37;102470.14;;;19.78;20.90
77897;BME280;67092;64.282;21.056;2023-01-23T11:38:43;102468.63;;;19.43;20.93
77897;BME280;67092;64.282;21.056;2023-01-23T11:41:09;102467.49;;;20.30;20.53
77897;BME280;67092;64.282;21.056;2023-01-23T11:43:31;102465.08;;;20.30;20.54
77897;BME280;67092;64.282;21.056;2023-01-23T11:46:10;102468.82;;;20.21;20.74
77897;BME280;67092;64.282;21.056;2023-01-23T11:48:30;102464.54;;;19.49;21.09
77897;BME280;67092;64.282;21.056;2023-01-23T11:50:48;102465.11;;;20.28;20.63
77897;BME280;67092;64.282;21.056;2023-01-23T11:53:19;102461.12;;;20.38;20.35
77897;BME280;67092;64.282;21.056;2023-01-23T11:55:57;102462.14;;;20.29;20.47
77897;BME280;67092;64.282;21.056;2023-01-23T11:58:12;102463.87;;;20.39;20.56
77897;BME280;67092;64.282;21.056;2023-01-23T12:00:33;102462.27;;;20.41;20.33
77897;BME280;67092;64.282;21.056;2023-01-23T12:07:53;102450.15;;;19.45;20.98
77897;BME280;67092;64.282;21.056;2023-01-23T12:10:21;102441.09;;;20.25;20.47
77897;BME280;67092;64.282;21.056;2023-01-23T12:12:50;102445.40;;;20.13;20.51
77897;BME280;67092;64.282;21.056;2023-01-23T12:15:10;102448.37;;;20.25;20.45
77897;BME280;67092;64.282;21.056;2023-01-23T12:17:37;102444.43;;;19.84;20.76
77897;BME280;67092;64.282;21.056;2023-01-23T12:20:05;102440.86;;;20.00;20.78
77897;BME280;67092;64.282;21.056;2023-01-23T12:22:28;102431.66;;;19.76;20.80
77897;BME280;67092;64.282;21.056;2023-01-23T12:24:58;102424.00;;;19.64;21.08
77897;BME280;67092;64.282;21.056;2023-01-23T12:27:17;102422.62;;;20.13;20.71
77897;BME280;67092;64.282;21.056;2023-01-23T12:29:47;102429.60;;;19.82;20.75
77897;BME280;67092;64.282;21.056;2023-01-23T12:32:14;102424.32;;;19.99;20.59
77897;BME280;67092;64.282;21.056;2023-01-23T12:34:41;102428.54;;;20.44;20.47